Time;durP1;ratioP1;P1;durP2;ratioP2;P2;SDS_P1;SDS_P2;PMS_P1;PMS_P2;Temp;Humidity;BMP_temperature;BMP_pressure;BME280_temperature;BME280_humidity;BME280_pressure;Samples;Min_cycle;Max_cycle;Signal;HPM_P1;HPM_P2
2023/06/02 00:01:02;;;;;;;19.17;4.00;;;11.70;99.90;;;;;;5075304;28;20040;-56
2023/06/02 00:03:33;;;;;;;13.63;2.83;;;11.80;99.90;;;;;;5075324;28;20111;-57
2023/06/02 00:06:03;;;;;;;12.10;3.22;;;11.70;99.90;;;;;;5075060;28;20036;-57
2023/06/02 00:08:32;;;;;;;13.90;3.70;;;11.80;99.90;;;;;;5083392;28;20031;-57
2023/06/02 00:10:59;;;;;;;14.10;3.08;;;11.70;99.90;;;;;;5094987;28;20101;-56
2023/06/02 00:13:25;;;;;;;13.48;3.72;;;11.70;99.90;;;;;;5095658;28;20075;-59
2023/06/02 00:15:51;;;;;;;11.68;3.33;;;11.70;99.90;;;;;;5086700;28;20509;-57
2023/06/02 00:18:17;;;;;;;14.10;3.53;;;11.70;99.90;;;;;;5084801;28;20064;-56
2023/06/02 00:20:44;;;;;;;9.77;2.95;;;11.80;99.90;;;;;;5074979;28;20075;-57
2023/06/02 00:23:10;;;;;;;16.42;3.70;;;11.80;99.90;;;;;;5074771;28;20501;-57
2023/06/02 00:25:39;;;;;;;10.13;2.95;;;11.80;99.90;;;;;;5075098;28;20032;-59
2023/06/02 00:28:05;;;;;;;15.68;3.60;;;11.80;99.90;;;;;;5074783;28;20115;-56
2023/06/02 00:30:31;;;;;;;12.55;2.60;;;11.70;99.90;;;;;;5107198;28;20119;-58
2023/06/02 00:32:57;;;;;;;18.38;2.63;;;11.70;99.90;;;;;;5074657;28;20033;-57
2023/06/02 00:35:23;;;;;;;11.48;2.38;;;11.70;99.90;;;;;;5075057;28;20453;-56
2023/06/02 00:37:49;;;;;;;13.95;2.80;;;11.70;99.90;;;;;;5074546;28;20090;-57
2023/06/02 00:40:15;;;;;;;15.50;3.40;;;11.60;99.90;;;;;;5074702;28;20036;-57
2023/06/02 00:42:40;;;;;;;14.55;2.83;;;11.60;99.90;;;;;;5074735;28;20036;-56
2023/06/02 00:45:07;;;;;;;12.13;2.95;;;11.60;99.90;;;;;;5074772;28;20032;-56
2023/06/02 00:47:32;;;;;;;12.32;2.40;;;11.50;99.90;;;;;;5070931;28;20088;-58
2023/06/02 00:49:58;;;;;;;16.00;3.05;;;11.60;99.90;;;;;;5073503;28;20573;-57
2023/06/02 00:52:25;;;;;;;18.80;3.35;;;11.60;99.90;;;;;;5074174;28;20028;-57
2023/06/02 00:54:51;;;;;;;18.42;3.40;;;11.60;99.90;;;;;;5074607;28;20025;-56
2023/06/02 00:57:17;;;;;;;13.13;4.00;;;11.60;99.90;;;;;;5073016;28;20155;-59
2023/06/02 00:59:43;;;;;;;13.68;3.17;;;11.60;99.90;;;;;;5074847;28;20343;-59
2023/06/02 01:02:10;;;;;;;16.88;3.97;;;11.60;99.90;;;;;;5074815;28;20429;-58
2023/06/02 01:04:36;;;;;;;18.17;3.13;;;11.50;99.90;;;;;;5074921;28;20036;-57
2023/06/02 01:07:03;;;;;;;15.82;3.70;;;11.60;99.90;;;;;;5074423;28;20043;-58
2023/06/02 01:09:29;;;;;;;14.90;3.08;;;11.60;99.90;;;;;;5092857;28;20032;-58
2023/06/02 01:11:56;;;;;;;14.00;3.67;;;11.50;99.90;;;;;;5094711;28;20044;-58
2023/06/02 01:14:22;;;;;;;16.55;3.40;;;11.40;99.90;;;;;;5095066;28;20038;-58
2023/06/02 01:16:51;;;;;;;16.23;3.22;;;11.40;99.90;;;;;;5091455;28;20068;-58
2023/06/02 01:19:21;;;;;;;;;;;11.40;99.90;;;;;;5095229;28;20107;-57
2023/06/02 01:22:01;;;;;;;10.73;2.05;;;11.40;99.90;;;;;;5090975;28;20373;-58
2023/06/02 01:24:38;;;;;;;18.13;2.88;;;11.40;99.90;;;;;;5094300;28;20040;-58
2023/06/02 01:27:08;;;;;;;15.52;3.17;;;11.40;99.90;;;;;;5094736;28;20526;-59
2023/06/02 01:29:35;;;;;;;12.50;3.10;;;11.40;99.90;;;;;;5091124;28;20374;-58
2023/06/02 01:32:08;;;;;;;17.63;3.13;;;11.40;99.90;;;;;;5107100;28;20048;-58
2023/06/02 01:34:47;;;;;;;13.35;2.63;;;11.40;99.90;;;;;;5074374;28;20501;-58
2023/06/02 01:37:14;;;;;;;11.38;3.22;;;11.40;99.90;;;;;;5074250;28;20106;-57
2023/06/02 01:39:41;;;;;;;17.15;3.20;;;11.30;99.90;;;;;;5074291;28;20097;-58
2023/06/02 01:42:08;;;;;;;18.85;2.78;;;11.40;99.90;;;;;;5119699;27;20040;-58
2023/06/02 01:44:35;;;;;;;22.27;4.32;;;11.30;99.90;;;;;;5073992;28;20036;-57
2023/06/02 01:47:02;;;;;;;15.63;2.55;;;11.20;99.90;;;;;;5072808;28;20132;-57
2023/06/02 01:49:27;;;;;;;13.52;3.38;;;11.30;99.90;;;;;;5073692;28;20064;-58
2023/06/02 01:51:54;;;;;;;17.50;3.00;;;11.30;99.90;;;;;;5073674;28;20036;-57
2023/06/02 01:54:20;;;;;;;13.35;3.03;;;11.20;99.90;;;;;;5073901;28;20064;-57
2023/06/02 01:56:46;;;;;;;18.17;3.38;;;11.30;99.90;;;;;;5073568;28;20044;-58
2023/06/02 01:59:12;;;;;;;15.90;3.58;;;11.30;99.90;;;;;;5073691;28;20037;-58
2023/06/02 02:01:40;;;;;;;15.23;2.58;;;11.30;99.90;;;;;;5073516;28;20037;-58
2023/06/02 02:04:06;;;;;;;18.60;3.65;;;11.30;99.90;;;;;;5106422;28;20032;-57
2023/06/02 02:06:32;;;;;;;17.02;3.58;;;11.30;99.90;;;;;;5073577;28;20479;-57
2023/06/02 02:08:58;;;;;;;17.55;2.83;;;11.30;99.90;;;;;;5072354;28;20111;-58
2023/06/02 02:11:26;;;;;;;14.18;3.10;;;11.30;99.90;;;;;;5093244;28;20039;-57
2023/06/02 02:13:52;;;;;;;18.48;3.65;;;11.30;99.90;;;;;;5093805;28;20514;-58
2023/06/02 02:16:18;;;;;;;14.40;3.28;;;11.30;99.90;;;;;;5089213;28;20087;-59
2023/06/02 02:18:45;;;;;;;13.85;3.20;;;11.30;99.90;;;;;;5083673;28;20068;-57
2023/06/02 02:21:12;;;;;;;16.13;3.67;;;11.30;99.90;;;;;;5088936;28;20033;-59
2023/06/02 02:23:38;;;;;;;13.25;2.65;;;11.30;99.90;;;;;;5093908;28;20050;-58
2023/06/02 02:26:03;;;;;;;20.67;4.22;;;11.20;99.90;;;;;;5093637;28;20161;-58
2023/06/02 02:28:29;;;;;;;16.65;2.85;;;11.20;99.90;;;;;;5087279;28;20040;-58
2023/06/02 02:30:55;;;;;;;16.65;3.35;;;11.20;99.90;;;;;;5086077;28;20093;-57
2023/06/02 02:33:21;;;;;;;19.90;3.60;;;11.20;99.90;;;;;;5093451;28;20036;-58
2023/06/02 02:35:47;;;;;;;18.73;3.45;;;11.20;99.90;;;;;;5093471;28;20553;-57
2023/06/02 02:38:12;;;;;;;12.30;2.53;;;11.20;99.90;;;;;;5091772;28;20040;-58
2023/06/02 02:40:38;;;;;;;14.52;2.80;;;11.30;99.90;;;;;;5072467;28;20124;-57
2023/06/02 02:43:04;;;;;;;18.38;3.22;;;11.20;99.90;;;;;;5072657;28;20364;-57
2023/06/02 02:45:30;;;;;;;19.08;3.97;;;11.20;99.90;;;;;;5086580;28;20391;-57
2023/06/02 02:47:56;;;;;;;18.52;3.20;;;11.20;99.90;;;;;;5079336;28;20036;-57
2023/06/02 02:50:21;;;;;;;16.25;3.70;;;11.20;99.90;;;;;;5071561;28;20418;-58
2023/06/02 02:52:47;;;;;;;16.73;4.15;;;11.20;99.90;;;;;;5073014;28;20352;-57
2023/06/02 02:55:13;;;;;;;14.45;2.97;;;11.30;99.90;;;;;;5072942;28;20040;-57
2023/06/02 02:57:39;;;;;;;17.70;3.65;;;11.30;99.90;;;;;;5072859;28;20028;-59
2023/06/02 03:00:09;;;;;;;15.20;3.15;;;11.30;99.90;;;;;;5072964;28;20036;-57
2023/06/02 03:02:36;;;;;;;18.67;3.45;;;11.20;99.90;;;;;;5071839;28;20052;-57
2023/06/02 03:05:02;;;;;;;17.58;3.67;;;11.30;99.90;;;;;;5073096;28;20032;-57
2023/06/02 03:07:29;;;;;;;15.73;3.28;;;11.30;99.90;;;;;;5072831;28;20048;-58
2023/06/02 03:09:55;;;;;;;15.75;3.00;;;11.30;99.90;;;;;;5072671;28;20036;-58
2023/06/02 03:12:21;;;;;;;17.90;3.88;;;11.30;99.90;;;;;;5072946;28;20052;-58
2023/06/02 03:14:46;;;;;;;21.25;3.45;;;11.30;99.90;;;;;;5072337;28;20028;-57
2023/06/02 03:17:13;;;;;;;20.25;3.95;;;11.30;99.90;;;;;;5072595;28;20037;-58
2023/06/02 03:19:39;;;;;;;17.25;3.67;;;11.40;99.90;;;;;;5072397;28;20507;-59
2023/06/02 03:22:05;;;;;;;18.33;3.70;;;11.40;99.90;;;;;;5072599;28;20039;-57
2023/06/02 03:24:30;;;;;;;15.68;3.10;;;11.40;99.90;;;;;;5072706;28;20048;-57
2023/06/02 03:26:57;;;;;;;18.55;3.00;;;11.40;99.90;;;;;;5072610;28;20037;-57
2023/06/02 03:29:23;;;;;;;18.13;3.60;;;11.40;99.90;;;;;;5072726;28;20047;-59
2023/06/02 03:31:51;;;;;;;13.68;3.08;;;11.40;99.90;;;;;;5072299;28;20036;-58
2023/06/02 03:34:17;;;;;;;13.93;3.25;;;11.50;99.90;;;;;;5072400;28;20032;-59
2023/06/02 03:36:43;;;;;;;17.83;3.28;;;11.40;99.90;;;;;;5072503;28;20463;-58
2023/06/02 03:39:10;;;;;;;13.57;3.08;;;11.40;99.90;;;;;;5072812;28;20119;-57
2023/06/02 03:41:36;;;;;;;21.73;5.28;;;11.50;99.90;;;;;;5072307;28;20487;-58
2023/06/02 03:44:03;;;;;;;14.65;3.45;;;11.50;99.90;;;;;;5072346;28;20086;-58
2023/06/02 03:46:29;;;;;;;19.98;3.60;;;11.50;99.90;;;;;;5075824;28;20092;-58
2023/06/02 03:48:55;;;;;;;17.52;3.13;;;11.50;99.90;;;;;;5076122;28;20048;-58
2023/06/02 03:51:20;;;;;;;16.27;2.88;;;11.50;99.90;;;;;;5080034;28;20489;-58
2023/06/02 03:53:48;;;;;;;18.92;3.00;;;11.50;99.90;;;;;;5070986;28;20072;-58
2023/06/02 03:56:14;;;;;;;17.58;3.67;;;11.60;99.90;;;;;;5069384;28;20493;-58
2023/06/02 03:58:40;;;;;;;16.10;3.20;;;11.60;99.90;;;;;;5069444;28;20036;-57
2023/06/02 04:01:05;;;;;;;14.77;4.00;;;11.60;99.90;;;;;;5070944;28;20044;-57
2023/06/02 04:03:36;;;;;;;20.27;4.28;;;11.60;99.90;;;;;;5067985;28;20044;-57
2023/06/02 04:06:04;;;;;;;15.15;3.97;;;11.60;99.90;;;;;;5055145;28;20041;-56
2023/06/02 04:08:29;;;;;;;12.20;3.20;;;11.60;99.90;;;;;;5066599;28;20043;-57
2023/06/02 04:10:55;;;;;;;19.20;4.13;;;11.70;99.90;;;;;;5070890;28;20040;-57
2023/06/02 04:13:21;;;;;;;19.15;4.57;;;11.60;99.90;;;;;;5070894;28;20044;-57
2023/06/02 04:15:46;;;;;;;17.40;3.22;;;11.70;99.90;;;;;;5074083;28;20040;-58
2023/06/02 04:18:12;;;;;;;16.00;3.40;;;11.70;99.90;;;;;;5075057;28;20117;-58
2023/06/02 04:20:38;;;;;;;17.40;3.88;;;11.60;99.90;;;;;;5068267;28;20522;-57
2023/06/02 04:23:04;;;;;;;14.82;2.65;;;11.70;99.90;;;;;;5071549;28;20029;-57
2023/06/02 04:25:29;;;;;;;21.38;4.00;;;11.70;99.90;;;;;;5071170;28;20438;-57
2023/06/02 04:27:55;;;;;;;10.95;3.72;;;11.70;99.90;;;;;;5070796;28;20029;-58
2023/06/02 04:30:20;;;;;;;15.52;3.47;;;11.70;99.90;;;;;;5071069;28;20033;-57
2023/06/02 04:32:46;;;;;;;20.00;3.92;;;11.80;99.90;;;;;;5073311;28;20052;-57
2023/06/02 04:35:12;;;;;;;19.42;3.83;;;11.80;99.90;;;;;;5074817;28;20086;-57
2023/06/02 04:37:38;;;;;;;13.80;2.95;;;11.80;99.90;;;;;;5074640;28;20063;-57
2023/06/02 04:40:04;;;;;;;21.98;3.75;;;11.80;99.90;;;;;;5074721;28;20028;-56
2023/06/02 04:42:32;;;;;;;22.60;3.92;;;11.80;99.90;;;;;;5074410;28;20045;-57
2023/06/02 04:45:00;;;;;;;20.30;3.67;;;11.80;99.90;;;;;;5074525;28;20040;-57
2023/06/02 04:47:27;;;;;;;12.80;3.30;;;11.80;99.90;;;;;;5072002;28;20043;-57
2023/06/02 04:49:55;;;;;;;;;;;12.00;99.90;;;;;;5068034;28;20135;-57
2023/06/02 04:52:21;;;;;;;23.40;3.67;;;11.90;99.90;;;;;;5067356;28;20021;-55
2023/06/02 04:54:48;;;;;;;18.67;3.17;;;12.00;99.90;;;;;;5071750;28;20033;-56
2023/06/02 04:57:15;;;;;;;17.70;4.65;;;12.00;99.90;;;;;;5069930;28;20075;-56
2023/06/02 04:59:40;;;;;;;18.33;3.53;;;12.00;99.90;;;;;;5074086;28;20381;-57
2023/06/02 05:02:06;;;;;;;18.05;4.18;;;12.10;99.90;;;;;;5074738;28;20032;-57
2023/06/02 05:04:32;;;;;;;19.23;3.92;;;12.00;99.90;;;;;;5073892;28;20040;-56
2023/06/02 05:06:57;;;;;;;21.67;4.10;;;12.00;99.90;;;;;;5068451;28;20087;-57
2023/06/02 05:09:23;;;;;;;19.90;3.60;;;12.00;99.90;;;;;;5068129;28;20040;-56
2023/06/02 05:11:48;;;;;;;20.13;4.85;;;12.00;99.90;;;;;;5073796;28;20052;-56
2023/06/02 05:14:15;;;;;;;18.05;4.13;;;12.10;99.90;;;;;;5072479;28;20090;-57
2023/06/02 05:16:44;;;;;;;17.92;3.53;;;12.10;99.90;;;;;;5071761;28;20036;-58
2023/06/02 05:19:10;;;;;;;26.63;4.50;;;12.10;99.90;;;;;;5074864;28;20075;-58
2023/06/02 05:21:35;;;;;;;22.73;3.63;;;12.20;99.90;;;;;;5067865;28;20075;-58
2023/06/02 05:24:01;;;;;;;21.52;4.05;;;12.10;99.90;;;;;;5074831;28;20774;-58
2023/06/02 05:26:27;;;;;;;24.48;5.55;;;12.20;99.90;;;;;;5074935;28;20044;-57
2023/06/02 05:28:57;;;;;;;16.33;3.90;;;12.20;99.90;;;;;;5074705;28;20032;-57
2023/06/02 05:31:23;;;;;;;22.80;4.25;;;12.20;99.90;;;;;;5074694;28;20043;-58
2023/06/02 05:33:48;;;;;;;17.83;3.83;;;12.30;99.90;;;;;;5074403;28;20041;-59
2023/06/02 05:36:14;;;;;;;23.00;4.65;;;12.30;99.90;;;;;;5074537;28;20033;-57
2023/06/02 05:38:44;;;;;;;20.42;5.72;;;12.30;99.90;;;;;;5074327;28;20036;-57
2023/06/02 05:41:10;;;;;;;19.00;4.57;;;12.40;99.90;;;;;;5074664;28;20444;-58
2023/06/02 05:43:36;;;;;;;23.08;5.00;;;12.40;99.90;;;;;;5074411;28;20040;-59
2023/06/02 05:46:02;;;;;;;18.48;3.95;;;12.40;99.90;;;;;;5074141;28;20082;-58
2023/06/02 05:48:28;;;;;;;24.23;3.70;;;12.50;99.90;;;;;;5073849;28;20056;-57
2023/06/02 05:50:54;;;;;;;19.27;3.97;;;12.60;99.90;;;;;;5074278;28;20106;-59
2023/06/02 05:53:20;;;;;;;28.23;4.85;;;12.60;99.90;;;;;;5074207;28;20044;-58
2023/06/02 05:55:46;;;;;;;19.90;4.82;;;12.70;99.90;;;;;;5073973;28;20036;-58
2023/06/02 05:58:11;;;;;;;19.92;5.18;;;12.70;99.90;;;;;;5073842;28;20072;-59
2023/06/02 06:00:38;;;;;;;20.85;4.40;;;12.80;99.90;;;;;;5073328;28;20690;-58
2023/06/02 06:03:04;;;;;;;26.23;5.88;;;12.80;99.90;;;;;;5073581;28;20533;-58
2023/06/02 06:05:30;;;;;;;28.48;5.53;;;12.80;99.90;;;;;;5085942;28;20043;-58
2023/06/02 06:07:56;;;;;;;30.65;5.50;;;12.90;99.90;;;;;;5094161;28;20044;-57
2023/06/02 06:10:22;;;;;;;25.75;6.10;;;12.90;99.90;;;;;;5091204;28;20036;-58
2023/06/02 06:12:47;;;;;;;24.27;5.32;;;13.00;99.90;;;;;;5088289;28;20048;-58
2023/06/02 06:15:13;;;;;;;26.25;4.97;;;13.00;99.90;;;;;;5093781;28;20429;-58
2023/06/02 06:17:52;;;;;;;19.95;4.95;;;13.10;99.90;;;;;;5093884;28;20036;-58
2023/06/02 06:20:19;;;;;;;21.70;5.20;;;13.20;99.90;;;;;;5089795;28;20032;-59
2023/06/02 06:22:44;;;;;;;27.77;5.72;;;13.20;99.90;;;;;;5069850;28;20075;-58
2023/06/02 06:25:11;;;;;;;23.13;5.13;;;13.30;99.90;;;;;;5072148;28;20068;-58
2023/06/02 06:27:37;;;;;;;22.58;4.80;;;13.30;99.90;;;;;;5059000;28;20029;-59
2023/06/02 06:30:04;;;;;;;19.02;4.70;;;13.30;99.90;;;;;;5075245;28;20044;-60
2023/06/02 06:32:30;;;;;;;24.83;5.00;;;13.30;99.90;;;;;;5073526;28;20043;-58
2023/06/02 06:34:56;;;;;;;25.02;5.78;;;13.50;99.90;;;;;;5103188;28;20090;-58
2023/06/02 06:37:21;;;;;;;28.23;4.97;;;13.40;99.90;;;;;;5067301;28;20036;-59
2023/06/02 06:39:47;;;;;;;22.33;5.45;;;13.50;99.90;;;;;;5067745;28;20143;-59
2023/06/02 06:42:13;;;;;;;23.30;5.05;;;13.60;99.90;;;;;;5069064;28;20044;-58
2023/06/02 06:44:38;;;;;;;24.90;5.28;;;13.80;99.90;;;;;;5072140;28;20043;-57
2023/06/02 06:47:04;;;;;;;28.13;5.68;;;14.00;99.90;;;;;;5071682;28;20032;-58
2023/06/02 06:49:30;;;;;;;23.50;5.07;;;14.10;99.90;;;;;;5070555;28;20052;-58
2023/06/02 06:51:56;;;;;;;22.10;4.95;;;14.30;99.90;;;;;;5068748;28;20037;-59
2023/06/02 06:54:21;;;;;;;28.55;5.50;;;14.40;99.90;;;;;;5071119;28;20210;-57
2023/06/02 06:56:47;;;;;;;19.00;3.92;;;14.60;99.90;;;;;;5073241;28;20114;-59
2023/06/02 06:59:13;;;;;;;20.52;4.50;;;14.80;99.90;;;;;;5071375;28;20652;-58
2023/06/02 07:01:38;;;;;;;17.55;5.10;;;14.90;99.90;;;;;;5072872;28;20032;-60
2023/06/02 07:04:05;;;;;;;18.05;4.65;;;15.20;99.90;;;;;;5072659;28;20028;-58
2023/06/02 07:06:31;;;;;;;23.02;5.07;;;15.40;99.90;;;;;;5075640;28;20508;-58
2023/06/02 07:08:57;;;;;;;20.92;3.83;;;15.70;99.90;;;;;;5092839;28;20044;-58
2023/06/02 07:11:23;;;;;;;25.35;4.20;;;15.80;99.90;;;;;;5092742;28;20032;-58
2023/06/02 07:13:48;;;;;;;9.20;3.05;;;15.90;99.90;;;;;;5092600;28;20565;-58
2023/06/02 07:16:14;;;;;;;24.00;5.05;;;16.30;99.90;;;;;;5093042;28;20390;-58
2023/06/02 07:18:39;;;;;;;24.98;3.85;;;16.40;99.90;;;;;;5092726;28;20059;-58
2023/06/02 07:21:05;;;;;;;20.35;3.30;;;16.50;99.90;;;;;;5092703;28;20100;-57
2023/06/02 07:23:31;;;;;;;21.05;4.10;;;16.80;99.90;;;;;;5092494;28;20040;-57
2023/06/02 07:25:56;;;;;;;29.23;3.65;;;17.10;99.90;;;;;;5092400;28;20055;-58
2023/06/02 07:28:22;;;;;;;20.98;4.25;;;17.40;99.90;;;;;;5092512;28;20051;-58
2023/06/02 07:30:48;;;;;;;17.92;4.25;;;17.50;99.90;;;;;;5092741;28;20075;-58
2023/06/02 07:33:15;;;;;;;17.90;3.10;;;17.60;99.90;;;;;;5092529;28;20083;-58
2023/06/02 07:35:41;;;;;;;26.70;4.80;;;17.60;99.90;;;;;;5092401;28;20439;-59
2023/06/02 07:38:07;;;;;;;14.68;3.42;;;17.40;99.90;;;;;;5091531;28;20119;-58
2023/06/02 07:40:32;;;;;;;14.48;3.30;;;17.90;99.90;;;;;;5092456;28;20123;-58
2023/06/02 07:42:58;;;;;;;15.52;3.22;;;18.20;99.90;;;;;;5092361;28;20047;-59
2023/06/02 07:45:24;;;;;;;12.52;3.67;;;18.30;99.90;;;;;;5092620;28;20035;-59
2023/06/02 07:47:49;;;;;;;12.90;2.92;;;18.50;99.90;;;;;;5085671;28;20575;-58
2023/06/02 07:50:15;;;;;;;12.32;3.05;;;18.70;99.90;;;;;;5071032;28;20045;-59
2023/06/02 07:52:41;;;;;;;13.68;3.00;;;18.50;99.90;;;;;;5072251;28;20049;-59
2023/06/02 07:55:06;;;;;;;14.27;3.00;;;18.70;99.90;;;;;;5072041;28;20044;-58
2023/06/02 07:57:32;;;;;;;11.85;3.17;;;18.80;99.90;;;;;;5071819;28;20044;-59
2023/06/02 07:59:58;;;;;;;16.60;3.47;;;19.10;99.90;;;;;;5072027;28;20036;-57
2023/06/02 08:02:23;;;;;;;11.15;2.67;;;19.30;99.90;;;;;;5071589;28;20483;-58
2023/06/02 08:04:49;;;;;;;11.43;2.50;;;19.60;99.90;;;;;;5071849;28;20048;-59
2023/06/02 08:07:15;;;;;;;9.10;2.30;;;19.80;99.90;;;;;;5073410;28;20043;-58
2023/06/02 08:09:40;;;;;;;10.13;1.52;;;19.70;99.90;;;;;;5075759;28;20399;-58
2023/06/02 08:12:06;;;;;;;16.02;2.58;;;20.00;99.90;;;;;;5075537;28;20093;-58
2023/06/02 08:14:32;;;;;;;4.28;1.58;;;20.10;99.90;;;;;;5075771;28;20040;-58
2023/06/02 08:16:58;;;;;;;6.88;1.40;;;20.00;99.90;;;;;;5075409;28;20032;-57
2023/06/02 08:19:24;;;;;;;8.55;1.67;;;20.10;99.90;;;;;;5075151;28;20522;-58
2023/06/02 08:21:50;;;;;;;11.05;1.80;;;20.40;99.90;;;;;;5075755;28;20116;-58
2023/06/02 08:24:15;;;;;;;5.38;1.90;;;20.60;99.90;;;;;;5075801;28;20029;-58
2023/06/02 08:26:41;;;;;;;5.25;1.58;;;20.80;99.90;;;;;;5075381;28;20036;-58
2023/06/02 08:29:11;;;;;;;11.43;2.13;;;21.00;99.90;;;;;;5075612;28;20041;-59
2023/06/02 08:31:37;;;;;;;5.25;1.70;;;21.10;99.90;;;;;;5075159;28;20047;-59
2023/06/02 08:34:08;;;;;;;6.28;1.38;;;21.00;99.90;;;;;;5075452;28;20433;-58
2023/06/02 08:36:33;;;;;;;6.03;1.40;;;21.00;99.90;;;;;;5075427;28;20068;-58
2023/06/02 08:39:05;;;;;;;9.98;1.52;;;21.20;99.90;;;;;;5075194;28;20145;-58
2023/06/02 08:41:39;;;;;;;7.03;1.40;;;21.50;99.90;;;;;;5075074;28;20067;-59
2023/06/02 08:44:05;;;;;;;3.63;1.08;;;21.70;99.90;;;;;;5075061;28;20040;-59
2023/06/02 08:46:31;;;;;;;2.65;1.00;;;21.70;99.90;;;;;;5074995;28;20032;-58
2023/06/02 08:48:58;;;;;;;6.28;1.45;;;21.80;99.90;;;;;;5074790;28;20055;-59
2023/06/02 08:51:24;;;;;;;5.90;1.48;;;21.90;99.90;;;;;;5074925;28;20032;-58
2023/06/02 08:53:50;;;;;;;5.30;1.50;;;22.20;99.90;;;;;;5074628;28;20086;-59
2023/06/02 08:56:16;;;;;;;7.78;2.22;;;22.20;99.90;;;;;;5074898;28;20024;-58
2023/06/02 08:58:46;;;;;;;5.53;1.83;;;22.20;99.90;;;;;;5074697;28;20029;-58
2023/06/02 09:01:12;;;;;;;4.82;1.50;;;22.20;99.90;;;;;;5074403;28;20024;-58
2023/06/02 09:03:38;;;;;;;12.55;1.45;;;22.30;99.90;;;;;;5074842;28;20045;-59
2023/06/02 09:06:23;;;;;;;3.47;1.50;;;22.30;99.90;;;;;;5074542;28;20499;-58
2023/06/02 09:08:56;;;;;;;5.05;1.63;;;22.40;99.90;;;;;;5074605;28;20041;-59
2023/06/02 09:11:22;;;;;;;4.43;1.45;;;22.30;99.90;;;;;;5074541;28;20075;-57
2023/06/02 09:13:48;;;;;;;5.75;1.92;;;22.00;99.90;;;;;;5074287;28;20080;-58
2023/06/02 09:16:14;;;;;;;4.45;1.35;;;22.30;99.90;;;;;;5074177;28;20043;-58
2023/06/02 09:18:39;;;;;;;6.85;2.13;;;22.40;99.90;;;;;;5085178;28;20131;-59
2023/06/02 09:21:27;;;;;;;4.95;1.55;;;22.60;99.90;;;;;;5088405;28;20044;-58
2023/06/02 09:23:54;;;;;;;8.15;1.83;;;22.20;99.90;;;;;;5068184;28;20048;-59
2023/06/02 09:26:22;;;;;;;4.93;1.17;;;22.70;99.90;;;;;;5094363;28;20040;-59
2023/06/02 09:29:04;;;;;;;8.55;1.40;;;22.70;99.90;;;;;;5090143;28;20048;-59
2023/06/02 09:31:52;;;;;;;5.53;1.60;;;22.60;99.90;;;;;;5088458;28;20047;-59
2023/06/02 09:34:19;;;;;;;5.53;1.25;;;22.40;99.90;;;;;;5127402;27;20556;-59
2023/06/02 09:36:51;;;;;;;7.38;1.52;;;22.30;99.90;;;;;;5094118;28;20036;-58
2023/06/02 09:39:34;;;;;;;5.70;1.42;;;22.40;99.90;;;;;;5094375;28;20107;-58
2023/06/02 09:42:01;;;;;;;8.35;1.75;;;22.30;99.90;;;;;;5094388;28;20039;-58
2023/06/02 09:44:27;;;;;;;4.80;1.30;;;22.40;99.90;;;;;;5093932;28;20593;-59
2023/06/02 09:46:53;;;;;;;6.55;1.33;;;22.60;99.90;;;;;;5094122;28;20131;-59
2023/06/02 09:49:19;;;;;;;3.97;1.40;;;22.80;99.70;;;;;;5074201;28;20053;-59
2023/06/02 09:51:44;;;;;;;2.70;1.10;;;22.80;99.70;;;;;;5073635;28;20067;-59
2023/06/02 09:54:11;;;;;;;4.90;1.40;;;23.00;99.80;;;;;;5073975;28;20407;-58
2023/06/02 09:56:38;;;;;;;9.52;1.50;;;23.10;99.60;;;;;;5073960;28;20043;-58
2023/06/02 09:59:07;;;;;;;11.10;1.70;;;23.10;99.80;;;;;;5073626;28;20093;-58
2023/06/02 10:01:34;;;;;;;6.20;1.45;;;23.00;99.80;;;;;;5073752;28;20028;-58
2023/06/02 10:04:01;;;;;;;4.47;1.45;;;23.20;99.70;;;;;;5073413;28;20040;-59
2023/06/02 10:06:37;;;;;;;5.35;1.60;;;23.30;98.60;;;;;;5073399;28;20101;-59
2023/06/02 10:09:21;;;;;;;5.07;1.20;;;23.20;96.80;;;;;;5073508;28;20047;-59
2023/06/02 10:12:12;;;;;;;3.95;0.90;;;23.30;95.60;;;;;;5061709;28;20044;-59
2023/06/02 10:15:09;;;;;;;3.05;1.05;;;22.90;94.90;;;;;;5073383;28;20390;-59
2023/06/02 10:18:16;;;;;;;4.88;1.25;;;22.70;94.90;;;;;;5073396;28;20478;-58
2023/06/02 10:21:24;;;;;;;2.38;1.20;;;22.80;95.40;;;;;;5064855;28;20062;-58
2023/06/02 10:24:11;;;;;;;2.90;0.90;;;23.30;96.90;;;;;;5073323;28;20044;-59
2023/06/02 10:27:02;;;;;;;4.10;1.20;;;23.50;96.00;;;;;;5073548;28;20033;-59
2023/06/02 10:29:30;;;;;;;3.47;1.40;;;23.50;94.50;;;;;;5072289;28;20098;-60
2023/06/02 10:31:56;;;;;;;5.30;0.93;;;23.60;96.10;;;;;;5073263;28;20491;-59
2023/06/02 10:34:41;;;;;;;2.70;1.02;;;23.20;95.10;;;;;;5073378;28;20032;-59
2023/06/02 10:37:07;;;;;;;2.95;0.82;;;23.50;95.70;;;;;;5066229;28;20059;-59
2023/06/02 10:39:39;;;;;;;4.68;1.05;;;23.30;94.30;;;;;;5091991;28;20036;-61
2023/06/02 10:42:05;;;;;;;5.68;1.20;;;23.50;96.00;;;;;;5079833;28;20044;-58
2023/06/02 10:44:32;;;;;;;7.43;1.33;;;23.70;97.00;;;;;;5093352;28;20036;-58
2023/06/02 10:47:19;;;;;;;4.50;1.05;;;23.90;95.00;;;;;;5093167;28;20040;-60
2023/06/02 10:50:09;;;;;;;5.10;0.95;;;23.80;96.80;;;;;;5055952;28;20516;-59
2023/06/02 10:52:54;;;;;;;4.28;0.93;;;23.80;96.70;;;;;;5069033;28;20505;-59
2023/06/02 10:55:20;;;;;;;11.52;1.35;;;23.60;95.20;;;;;;5072898;28;20068;-59
2023/06/02 10:58:05;;;;;;;4.65;1.30;;;23.30;95.70;;;;;;5077162;28;20117;-59
2023/06/02 11:00:39;;;;;;;6.22;1.30;;;23.40;94.80;;;;;;5067535;28;20433;-59
2023/06/02 11:03:22;;;;;;;6.88;1.50;;;23.30;95.50;;;;;;5069751;28;20079;-59
2023/06/02 11:05:49;;;;;;;4.30;1.35;;;23.30;95.80;;;;;;5068960;28;20044;-59
2023/06/02 11:08:18;;;;;;;5.97;1.30;;;23.40;97.80;;;;;;5066447;28;20025;-59
2023/06/02 11:10:47;;;;;;;3.65;1.20;;;23.60;97.40;;;;;;5078814;28;20562;-59
2023/06/02 11:13:16;;;;;;;5.28;1.50;;;23.80;97.20;;;;;;5071472;28;20480;-59
2023/06/02 11:16:06;;;;;;;7.35;1.65;;;23.70;98.50;;;;;;5069962;28;20044;-59
2023/06/02 11:18:32;;;;;;;;;;;23.80;97.50;;;;;;5010438;28;20112;-59
2023/06/02 11:21:22;;;;;;;5.55;2.03;;;23.60;98.60;;;;;;5010401;28;20047;-60
2023/06/02 11:23:48;;;;;;;11.40;1.98;;;23.60;98.80;;;;;;5010279;28;20594;-59
2023/06/02 11:26:22;;;;;;;6.50;1.40;;;23.80;98.90;;;;;;5010088;28;20045;-58
2023/06/02 11:28:48;;;;;;;4.90;1.90;;;24.00;98.20;;;;;;5010505;28;20459;-59
2023/06/02 11:31:18;;;;;;;4.70;1.73;;;23.40;98.30;;;;;;5010179;28;20038;-58
2023/06/02 11:33:50;;;;;;;4.45;1.80;;;23.20;98.10;;;;;;5010055;28;20053;-59
2023/06/02 11:36:25;;;;;;;5.05;1.42;;;23.30;99.90;;;;;;5026926;28;20049;-59
2023/06/02 11:38:50;;;;;;;6.78;2.08;;;22.70;99.90;;;;;;5010229;28;20134;-59
2023/06/02 11:41:21;;;;;;;7.22;1.85;;;23.00;99.70;;;;;;5011899;28;20104;-58
2023/06/02 11:43:50;;;;;;;8.90;2.22;;;23.30;99.90;;;;;;5014379;28;20613;-58
2023/06/02 11:46:18;;;;;;;7.50;2.05;;;23.00;99.20;;;;;;5015598;28;20045;-58
2023/06/02 11:48:45;;;;;;;15.57;2.22;;;22.60;99.70;;;;;;5013334;28;20129;-58
2023/06/02 11:51:12;;;;;;;5.63;1.98;;;22.30;99.90;;;;;;5013930;28;20038;-59
2023/06/02 11:53:44;;;;;;;5.63;1.85;;;22.50;99.90;;;;;;5017689;28;20046;-59
2023/06/02 11:56:10;;;;;;;6.10;2.35;;;22.40;99.90;;;;;;5057817;28;20048;-59
2023/06/02 11:58:43;;;;;;;7.95;1.98;;;22.70;99.90;;;;;;5068884;28;20383;-58
2023/06/02 12:01:14;;;;;;;5.93;2.05;;;22.70;99.90;;;;;;5067121;28;20041;-58
2023/06/02 12:03:57;;;;;;;5.97;2.03;;;23.30;99.90;;;;;;5064290;28;20072;-58
2023/06/02 12:06:23;;;;;;;6.38;2.20;;;23.30;99.90;;;;;;5065012;28;20041;-59
2023/06/02 12:08:49;;;;;;;5.85;1.73;;;23.30;99.90;;;;;;5064460;28;20060;-58
2023/06/02 12:11:16;;;;;;;8.50;2.67;;;23.50;99.90;;;;;;5105627;28;20049;-59
2023/06/02 12:13:54;;;;;;;5.82;2.25;;;23.50;99.90;;;;;;5117786;27;20090;-59
2023/06/02 12:16:21;;;;;;;7.00;2.22;;;22.80;99.90;;;;;;5069383;28;20047;-59
2023/06/02 12:18:47;;;;;;;6.65;2.35;;;22.00;99.90;;;;;;5091030;28;20095;-59
2023/06/02 12:21:25;;;;;;;8.27;2.35;;;22.20;99.90;;;;;;5079790;28;20040;-59
2023/06/02 12:23:52;;;;;;;6.55;2.42;;;22.10;99.90;;;;;;5063413;28;20044;-59
2023/06/02 12:26:18;;;;;;;13.07;2.70;;;22.60;99.90;;;;;;5070926;28;20047;-58
2023/06/02 12:28:45;;;;;;;6.60;2.28;;;22.70;99.90;;;;;;5073787;28;20078;-58
2023/06/02 12:31:10;;;;;;;7.97;2.72;;;22.70;99.90;;;;;;5074619;28;20032;-59
2023/06/02 12:33:37;;;;;;;10.70;2.92;;;22.20;99.90;;;;;;5074606;28;20038;-59
2023/06/02 12:36:03;;;;;;;8.30;3.65;;;22.10;99.90;;;;;;5075008;28;20103;-58
2023/06/02 12:38:28;;;;;;;11.10;2.38;;;22.10;99.90;;;;;;5074423;28;20447;-59
2023/06/02 12:40:54;;;;;;;10.93;2.35;;;22.00;99.90;;;;;;5074569;28;20083;-59
2023/06/02 12:43:20;;;;;;;10.18;2.78;;;22.20;99.90;;;;;;5075041;28;20394;-59
2023/06/02 12:45:46;;;;;;;7.57;2.63;;;22.20;99.90;;;;;;5076476;28;20441;-58